Date,TemperatureHighF,TemperatureAvgF,TemperatureLowF,DewpointHighF,DewpointAvgF,DewpointLowF,HumidityHigh,HumidityAvg,HumidityLow,PressureMaxIn,PressureMinIn,WindSpeedMaxMPH,WindSpeedAvgMPH,GustSpeedMaxMPH,PrecipitationSumIn
2014-1-1,8.2,2.9,-6.5,0.2,-5.0,-12.4,76,69,60,30.25,30.13,9,4,0,0.00
2014-1-2,9.7,4.0,-8.3,1.5,-2.8,-11.1,87,73,57,30.21,30.09,10,4,0,0.00
2014-1-3,16.5,2.7,-11.7,11.7,-2.5,-14.2,92,79,64,30.20,29.50,16,5,0,0.02
2014-1-4,32.2,23.2,13.8,26.9,17.0,6.8,84,77,71,29.91,29.40,11,6,0,0.00
2014-1-5,13.5,3.7,-8.5,6.2,-5.1,-16.5,75,66,56,30.01,29.85,13,7,0,0.00
2014-1-6,-8.9,-15.0,-18.8,-16.6,-23.1,-28.3,76,66,57,29.94,29.83,20,8,0,0.08
2014-1-7,2.3,-8.0,-18.0,-8.2,-15.4,-23.3,78,69,59,30.07,29.91,10,5,0,0.00
2014-1-8,7.2,-2.2,-9.8,-4.4,-9.3,-13.4,89,72,56,30.30,30.06,8,3,0,0.00
2014-1-9,21.9,3.0,-14.3,19.9,-1.9,-17.5,92,80,61,30.31,29.89,6,2,0,0.00
2014-1-10,34.5,28.8,21.9,34.2,27.6,19.9,99,95,87,29.89,29.21,9,3,0,0.27
2014-1-11,34.9,31.2,28.9,34.6,29.5,26.1,99,93,87,29.51,29.18,14,5,0,0.01
2014-1-12,38.1,32.4,25.0,32.9,28.3,24.0,96,85,71,29.56,29.33,10,4,0,0.01
2014-1-13,39.4,33.3,20.3,33.4,29.3,18.1,92,85,73,29.56,29.32,12,3,0,0.00
2014-1-14,32.7,24.4,15.3,31.9,23.1,14.1,99,95,89,29.76,29.33,14,5,0,0.02
2014-1-15,17.2,13.2,9.3,13.9,10.0,5.5,95,87,79,29.93,29.52,11,5,0,0.00
2014-1-16,32.5,23.2,11.5,29.5,19.6,8.6,98,86,79,29.57,29.27,12,6,0,0.00
2014-1-17,24.3,17.0,10.0,19.6,13.7,7.1,91,87,79,29.82,29.57,10,5,0,0.00
2014-1-18,18.9,10.2,3.9,12.9,6.7,1.6,97,86,76,29.80,29.69,6,2,0,0.00
2014-1-19,34.5,24.4,10.9,25.0,19.2,8.6,90,81,68,29.68,29.36,9,4,0,0.00
2014-1-20,16.3,10.1,1.8,13.1,2.7,-6.3,87,72,61,30.20,29.71,9,5,0,0.00
2014-1-21,4.5,-1.1,-7.6,-5.4,-8.1,-11.6,83,72,60,30.28,30.06,10,4,0,0.00
2014-1-22,10.0,1.4,-3.1,3.4,-4.2,-9.6,87,77,71,30.07,29.82,11,4,0,0.00
2014-1-23,9.5,0.3,-8.5,-1.5,-7.2,-14.5,82,70,59,30.46,30.08,18,6,0,0.00
2014-1-24,26.2,10.8,-8.9,25.4,5.0,-14.6,97,77,64,30.30,29.26,14,6,0,0.10
2014-1-25,27.9,10.7,-0.6,25.3,1.6,-9.2,96,66,53,29.71,29.24,17,8,0,0.22
2014-1-26,16.3,8.4,1.6,11.2,3.4,-7.1,90,80,66,29.67,29.22,14,5,0,0.10
2014-1-27,2.8,-6.6,-13.0,-4.4,-15.6,-19.9,74,64,53,30.27,29.69,19,8,0,0.09
2014-1-28,2.5,-6.9,-17.0,-9.2,-14.9,-21.3,80,68,56,30.26,30.01,10,5,0,0.00
2014-1-29,22.3,7.6,-5.8,11.6,-1.5,-11.8,77,66,52,30.00,29.68,12,6,0,0.00
2014-1-30,28.4,23.8,12.4,25.3,17.2,5.7,95,76,63,29.83,29.41,15,6,0,0.03
2014-1-31,11.8,3.1,-5.3,4.8,-3.4,-7.5,93,74,56,30.07,29.83,8,3,0,0.00
2014-2-1,15.4,8.1,-4.5,10.5,3.5,-6.6,92,81,72,30.03,29.85,5,2,0,0.00
2014-2-2,14.7,5.3,-6.2,4.3,-0.1,-8.1,95,80,53,30.23,30.02,9,3,0,0.00
2014-2-3,19.8,5.7,-9.6,6.7,-1.0,-12.2,91,75,52,30.26,30.19,7,2,0,0.00
2014-2-4,19.9,12.0,1.4,12.0,6.0,0.1,95,77,67,30.35,30.19,7,2,0,0.00
2014-2-5,15.8,12.4,3.6,10.7,5.5,-1.2,81,73,62,30.33,30.15,9,5,0,0.00
2014-2-6,8.4,0.6,-6.7,-1.6,-6.2,-9.5,87,73,57,30.31,30.16,14,5,0,0.00
2014-2-7,14.7,4.2,-4.0,0.4,-4.4,-9.0,82,68,50,30.18,30.09,10,4,0,0.00
2014-2-8,16.3,5.9,-7.2,9.5,1.2,-9.6,95,81,62,30.17,30.04,5,2,0,0.00
2014-2-9,21.4,9.5,-0.8,9.9,3.0,-8.2,93,76,54,30.22,30.01,10,5,0,0.00
2014-2-10,8.1,-0.1,-8.5,-4.7,-8.6,-13.2,79,67,54,30.38,30.21,10,4,0,0.00
2014-2-11,14.2,0.9,-11.4,-0.6,-7.1,-14.2,88,70,50,30.42,30.21,7,3,0,0.00
2014-2-12,20.3,8.3,-1.7,13.1,3.0,-5.6,96,79,67,30.22,29.91,8,3,0,0.00
2014-2-13,25.2,18.5,-2.2,23.3,15.4,-4.6,96,88,63,29.91,29.38,10,3,0,0.00
2014-2-14,24.8,16.2,7.3,16.6,8.9,2.2,90,73,59,29.90,29.45,18,6,0,0.00
2014-2-15,21.2,10.3,-4.5,13.5,4.1,-6.0,93,76,58,29.98,29.85,6,2,0,0.00
2014-2-16,21.2,13.6,5.2,13.4,8.6,2.7,93,81,62,30.22,29.86,9,3,0,0.00
2014-2-17,27.9,19.8,7.2,23.6,17.8,4.4,98,92,73,30.18,29.62,11,4,0,0.00
2014-2-18,42.8,28.8,13.1,31.3,24.4,12.2,98,85,62,29.77,29.47,6,2,0,0.23
2014-2-19,45.9,34.7,24.8,29.4,25.8,22.0,89,71,50,29.81,29.54,7,4,0,0.00
2014-2-20,37.6,33.6,29.1,37.3,31.1,23.2,99,91,75,29.80,28.99,20,8,0,1.21
2014-2-21,34.5,23.8,17.1,32.1,16.3,9.0,91,73,58,29.65,29.02,18,9,0,0.31
2014-2-22,28.6,19.0,10.8,11.4,7.5,1.7,73,61,45,29.99,29.64,17,7,0,0.00
2014-2-23,24.3,13.8,4.8,4.0,0.6,-3.1,69,56,39,30.09,29.99,15,7,0,0.06
2014-2-24,20.1,11.7,4.6,2.7,-0.4,-3.0,70,58,44,30.20,30.09,15,6,0,0.00
2014-2-25,14.4,8.1,-1.5,-0.9,-5.2,-11.6,71,55,39,30.18,30.07,14,6,0,0.00
2014-2-26,12.9,3.8,-7.2,3.2,-9.1,-16.7,77,55,35,30.17,29.55,14,6,0,0.08
2014-2-27,7.9,0.1,-9.8,-3.8,-16.2,-21.3,67,46,30,30.17,29.61,18,6,0,0.15
2014-2-28,18.5,7.2,-11.7,9.8,-4.7,-19.3,78,59,39,30.17,29.93,7,2,0,0.00
2014-3-1,15.4,9.2,3.9,9.8,-1.3,-7.5,78,62,40,30.33,30.02,10,6,0,0.00
2014-3-2,7.7,1.1,-4.7,-7.5,-17.0,-21.2,59,42,27,30.43,30.33,10,5,0,0.00
2014-3-3,14.7,4.3,-12.3,-2.8,-12.0,-21.3,64,47,34,30.48,30.29,9,3,0,0.00
2014-3-4,25.2,14.9,9.7,6.4,4.5,-2.8,78,64,41,30.29,30.15,5,2,0,0.00
2014-3-5,16.3,10.7,-2.6,5.3,0.7,-7.3,81,64,52,30.48,30.26,9,4,0,0.00
2014-3-6,29.8,14.1,-6.3,10.0,3.3,-11.9,81,64,41,30.44,29.98,10,2,0,0.00
2014-3-7,42.4,31.1,16.0,25.6,19.1,8.9,73,62,47,30.02,29.78,8,4,0,0.05
2014-3-8,32.0,24.8,16.2,22.6,12.4,7.3,69,59,40,30.21,30.03,7,3,0,0.00
2014-3-9,38.7,28.1,14.0,26.8,15.7,6.0,74,60,40,30.16,29.67,13,5,0,0.01
2014-3-10,57.9,44.0,33.8,32.5,29.5,26.9,81,59,34,29.67,29.51,6,3,0,0.00
2014-3-11,46.6,40.9,32.5,31.0,27.3,23.6,70,59,46,29.83,29.62,8,3,0,0.00
2014-3-12,32.2,21.8,13.1,24.0,5.9,-4.3,72,51,31,30.09,29.82,12,5,0,0.00
2014-3-13,37.8,25.4,9.7,29.7,14.1,1.2,75,62,50,30.09,29.66,13,5,0,0.00
2014-3-14,49.8,40.9,36.5,31.1,28.4,22.3,75,61,45,29.75,29.44,15,6,0,0.00
2014-3-15,36.3,30.2,18.1,22.5,15.6,5.5,65,55,39,30.38,29.76,14,6,0,0.01
2014-3-16,20.8,14.2,6.6,6.7,1.1,-5.3,66,55,46,30.46,30.17,11,5,0,0.02
2014-3-17,32.4,22.8,10.2,18.2,10.0,2.6,79,59,33,30.15,29.74,9,4,0,0.00
2014-3-18,42.8,33.5,24.8,29.4,24.6,18.4,84,70,56,29.83,29.74,10,5,0,0.00
2014-3-19,39.4,33.8,32.2,31.1,27.3,21.5,86,77,62,29.89,29.60,16,6,0,0.15
2014-3-20,42.3,34.9,27.1,22.7,18.7,15.8,70,53,37,29.98,29.88,11,4,0,0.00
2014-3-21,44.1,36.0,21.2,29.2,25.3,17.4,86,66,47,29.95,29.70,10,4,0,0.00
2014-3-22,35.4,29.9,19.0,28.8,15.8,3.1,81,56,36,30.34,29.81,16,7,0,0.00
2014-3-23,26.6,18.3,11.5,4.3,1.5,-0.6,62,48,34,30.42,30.31,12,6,0,0.00
2014-3-24,34.7,23.4,10.8,22.0,8.7,1.1,84,56,33,30.33,29.98,12,4,0,0.00
2014-3-25,21.9,17.9,13.1,13.9,2.7,-3.1,76,52,35,30.19,29.97,15,6,0,0.00
2014-3-26,34.7,24.0,8.4,20.7,7.6,-1.6,67,50,35,30.23,29.88,10,3,0,0.00
2014-3-27,40.1,36.6,31.1,34.0,29.0,20.1,86,75,52,29.88,29.44,11,4,0,0.94
2014-3-28,41.9,35.0,30.7,30.9,25.4,22.0,86,69,46,30.17,29.44,14,5,0,0.06
2014-3-29,41.9,33.4,28.6,23.8,21.4,18.7,79,62,42,30.26,30.17,8,3,0,0.00
2014-3-30,55.4,39.9,23.4,33.2,25.7,17.3,81,59,39,30.21,29.95,10,3,0,0.00
2014-3-31,59.9,47.2,37.2,35.1,30.4,28.5,73,54,35,29.98,29.57,14,5,0,0.01
2014-4-1,52.3,35.6,27.9,37.1,22.8,17.6,74,60,44,30.03,29.54,14,6,0,0.12
2014-4-2,44.4,33.6,24.6,23.6,19.5,16.6,81,57,39,30.19,30.04,10,4,0,0.00
2014-4-3,37.0,34.3,30.2,27.6,21.4,17.8,75,59,48,30.14,29.71,13,8,0,0.02
2014-4-4,35.2,32.7,29.3,30.9,27.6,22.3,87,81,67,29.94,29.46,17,7,0,0.42
2014-4-5,54.3,39.7,24.1,27.1,22.6,19.6,85,54,26,30.12,29.95,12,3,0,0.00
2014-4-6,60.6,46.7,32.9,33.3,28.8,23.1,71,51,34,30.06,29.86,11,4,0,0.00
2014-4-7,59.9,49.1,36.5,43.0,33.5,28.5,82,57,35,29.88,29.62,6,2,0,0.05
2014-4-8,56.7,46.9,38.5,41.1,34.3,29.7,84,63,37,29.92,29.63,9,4,0,0.03
2014-4-9,62.4,47.6,28.8,31.2,26.4,20.2,87,50,22,29.95,29.62,13,4,0,0.06
2014-4-10,63.1,53.5,37.2,36.6,23.5,8.8,52,34,12,29.91,29.55,20,6,0,0.02
2014-4-11,63.3,48.8,36.1,36.8,25.7,17.2,69,43,19,30.00,29.89,9,3,0,0.00
2014-4-12,45.1,41.3,37.9,40.3,33.9,28.5,87,76,53,30.00,29.65,14,4,0,4.05
2014-4-13,45.5,41.5,37.9,40.8,37.6,34.4,87,86,81,29.80,29.57,12,4,0,3.08
2014-4-14,39.7,31.4,23.9,35.9,24.7,15.4,87,76,65,30.01,29.53,15,6,0,0.63
2014-4-15,28.9,22.9,18.1,16.1,13.5,9.5,79,67,44,30.17,30.01,6,3,0,0.00
2014-4-16,44.1,33.6,20.8,27.5,21.8,14.3,78,63,43,30.24,30.07,17,5,0,0.22
2014-4-17,55.6,43.9,35.4,37.3,30.8,24.4,79,60,47,30.26,30.01,14,6,0,0.02
2014-4-18,51.4,39.9,32.9,29.9,26.2,21.5,81,59,35,30.36,30.27,11,4,0,0.00
2014-4-19,59.5,45.0,33.4,35.6,29.1,24.5,73,55,37,30.40,30.14,12,6,0,0.00
2014-4-20,64.9,54.5,49.5,52.0,41.9,34.6,87,63,45,30.13,29.94,10,2,0,0.06
2014-4-21,70.7,58.6,49.3,53.6,47.9,33.2,87,69,47,29.94,29.71,14,3,0,0.08
2014-4-22,54.3,45.9,35.1,32.1,26.1,22.1,65,47,30,30.09,29.87,16,7,0,0.01
2014-4-23,52.5,41.4,28.6,27.5,22.4,6.8,83,50,23,30.16,30.05,9,4,0,0.00
2014-4-24,46.4,42.6,39.7,37.6,30.7,11.2,81,65,29,30.08,29.68,14,6,0,0.52
2014-4-25,64.8,51.4,40.8,41.6,36.1,28.9,87,59,31,29.85,29.67,14,6,0,0.03
2014-4-26,47.8,43.0,39.7,31.4,28.6,26.6,63,57,48,30.11,29.85,16,7,0,0.00
2014-4-27,47.1,42.1,36.5,32.6,29.6,25.1,79,62,49,30.10,29.90,18,10,0,0.35
2014-4-28,49.6,44.7,41.4,38.1,33.5,29.7,83,65,46,29.92,29.71,20,11,0,1.46
2014-4-29,46.0,42.3,38.1,42.4,38.6,34.6,87,86,80,29.70,29.53,16,6,0,0.83
2014-4-30,57.6,48.7,42.8,45.5,40.9,34.6,87,75,57,29.71,29.62,12,4,0,0.02
2014-5-1,52.9,46.3,41.0,42.6,37.7,34.0,83,72,54,29.73,29.61,8,3,0,0.00
2014-5-2,53.1,47.5,44.1,42.1,39.2,35.8,87,74,57,29.74,29.63,7,3,0,0.02
2014-5-3,60.8,51.5,42.1,42.1,35.6,28.0,87,58,30,29.82,29.60,17,5,0,0.11
2014-5-4,59.2,50.0,42.4,33.2,27.3,21.4,60,43,25,30.07,29.82,12,6,0,0.00
2014-5-5,55.8,46.9,41.4,36.4,33.0,29.1,67,59,46,30.09,29.97,12,6,0,0.00
2014-5-6,59.2,50.0,41.0,36.4,32.8,29.4,71,53,36,30.07,29.93,14,7,0,0.02
2014-5-7,54.1,48.2,43.9,46.7,42.9,37.0,87,82,71,30.00,29.81,16,8,0,0.92
2014-5-8,78.8,62.7,48.2,62.4,53.1,44.5,87,72,57,29.84,29.63,9,3,0,0.00
2014-5-9,72.9,63.0,50.0,60.5,50.5,37.8,86,65,45,29.77,29.52,14,6,0,0.20
2014-5-10,72.9,59.2,43.5,42.2,35.3,23.4,82,46,16,29.91,29.78,10,4,0,0.00
2014-5-11,77.9,64.7,54.9,61.2,50.1,38.9,87,61,41,29.91,29.81,9,4,0,0.46
2014-5-12,77.2,64.0,57.2,64.3,58.3,53.4,87,82,63,29.88,29.70,18,5,0,1.77
2014-5-13,67.5,57.7,48.4,60.6,48.1,36.4,87,71,54,30.10,29.67,13,6,0,0.06
2014-5-14,58.8,51.6,43.5,39.6,36.4,30.8,78,58,36,30.17,30.04,11,3,0,0.00
2014-5-15,54.7,46.5,38.3,34.7,32.0,28.8,86,58,42,30.05,29.94,12,5,0,0.07
2014-5-16,54.9,45.2,31.8,30.7,27.1,24.4,84,51,32,30.04,29.97,9,3,0,0.00
2014-5-17,63.9,51.6,33.8,32.4,28.6,22.3,85,45,22,30.05,29.98,8,3,0,0.00
2014-5-18,74.7,60.7,45.5,39.5,33.7,29.5,60,38,19,30.11,30.03,6,4,0,0.00
2014-5-19,68.5,57.4,49.6,47.0,41.3,35.5,84,57,33,30.15,29.92,14,5,0,0.33
2014-5-20,75.6,65.4,52.3,59.5,53.7,42.8,82,66,55,29.92,29.79,12,4,0,0.00
2014-5-21,82.8,68.1,52.5,61.8,50.3,41.2,87,58,24,29.95,29.79,12,4,0,0.08
2014-5-22,72.3,62.0,53.1,47.7,44.5,41.3,74,54,34,30.12,29.96,11,4,0,0.00
2014-5-23,71.6,58.6,46.2,47.9,42.6,38.2,87,58,30,30.21,30.11,9,2,0,0.00
2014-5-24,77.5,64.4,45.3,49.3,42.1,36.0,84,47,29,30.20,30.06,11,2,0,0.00
2014-5-25,88.0,70.2,49.5,49.7,44.0,35.5,78,42,20,30.10,29.92,6,2,0,0.00
2014-5-26,86.4,73.7,64.2,66.7,59.3,47.4,80,62,43,29.95,29.81,7,3,0,0.13
2014-5-27,74.3,68.6,63.7,64.2,60.9,47.7,87,77,56,29.94,29.82,9,3,0,0.66
2014-5-28,70.5,62.2,55.9,53.5,47.4,32.9,67,59,36,30.07,29.93,9,3,0,0.00
2014-5-29,78.4,65.5,49.5,56.5,51.7,45.2,87,63,36,30.13,30.05,9,3,0,0.00
2014-5-30,84.2,69.6,50.9,56.0,50.9,47.1,87,56,29,30.17,30.08,8,2,0,0.00
2014-5-31,88.9,73.6,53.4,54.7,50.1,46.6,85,48,24,30.15,29.97,9,3,0,0.00
2014-6-1,86.7,71.2,63.1,67.1,59.5,48.8,87,69,46,29.99,29.79,10,3,0,3.25
2014-6-2,82.6,72.5,66.2,68.2,63.0,58.1,87,74,48,29.82,29.63,7,4,0,1.73
2014-6-3,78.3,68.9,60.6,58.2,50.5,46.9,71,53,35,29.89,29.68,17,5,0,0.00
2014-6-4,77.2,66.0,56.5,56.1,51.8,45.3,80,62,34,29.92,29.81,8,3,0,0.00
2014-6-5,82.0,67.0,51.1,52.3,48.6,44.0,87,55,31,29.97,29.86,8,2,0,0.00
2014-6-6,85.1,71.8,56.7,53.8,50.8,47.2,79,50,30,29.96,29.88,7,2,0,0.00
2014-6-7,84.9,70.9,62.1,61.2,52.6,41.4,87,56,31,29.96,29.80,7,3,0,0.57
2014-6-8,74.3,64.7,55.0,58.5,46.1,38.9,87,55,29,30.05,29.90,11,5,0,0.00
2014-6-9,73.0,65.2,52.9,53.7,46.3,39.0,61,51,41,30.05,29.92,8,4,0,0.00
2014-6-10,71.4,64.9,57.4,52.7,48.8,44.8,69,56,45,29.96,29.84,8,3,0,0.00
2014-6-11,69.3,64.4,58.1,56.8,52.9,49.3,87,67,55,29.84,29.72,13,4,0,0.03
2014-6-12,77.2,66.4,58.3,60.4,51.8,41.4,87,62,40,29.81,29.67,14,4,0,0.00
2014-6-13,75.9,62.0,51.6,42.6,37.7,29.0,67,44,19,29.99,29.81,14,6,0,0.00
2014-6-14,75.6,63.7,50.4,50.7,45.4,39.6,87,53,35,30.06,29.88,12,6,0,0.00
2014-6-15,85.1,71.1,61.3,65.2,53.1,41.1,75,53,42,29.92,29.69,12,5,0,0.09
2014-6-16,88.3,76.4,59.7,62.7,55.2,48.8,86,52,26,29.96,29.80,8,3,0,0.11
2014-6-17,90.7,74.7,64.8,67.9,63.6,60.8,87,70,41,29.85,29.64,8,3,0,1.72
2014-6-18,74.8,69.3,64.9,65.6,63.0,60.9,87,81,68,30.01,29.79,12,4,0,1.17
2014-6-19,74.5,67.6,63.0,62.2,60.2,57.6,87,78,65,30.11,29.98,12,6,0,0.22
2014-6-20,72.7,66.4,61.5,65.1,61.4,57.6,87,84,75,29.98,29.90,8,4,0,0.12
2014-6-21,75.7,66.5,61.5,65.6,61.3,57.6,87,84,71,29.95,29.82,9,3,0,0.00
2014-6-22,74.3,68.1,64.8,64.2,62.1,60.8,87,81,67,29.91,29.81,9,4,0,0.00
2014-6-23,82.2,70.9,63.9,67.5,63.8,60.0,87,79,59,29.83,29.74,7,3,0,1.29
2014-6-24,83.1,72.7,63.7,68.6,63.8,59.8,87,75,48,29.88,29.79,6,2,0,0.87
2014-6-25,71.4,65.8,62.6,62.6,59.7,57.2,87,81,64,30.03,29.89,9,4,0,0.01
2014-6-26,76.5,68.1,60.1,59.6,57.0,53.7,83,68,54,30.06,29.95,8,4,0,0.00
2014-6-27,83.3,73.4,61.0,67.8,62.6,56.4,86,70,57,30.00,29.87,14,5,0,0.00
2014-6-28,87.1,78.3,69.6,70.7,67.1,62.7,83,70,55,29.94,29.78,10,4,0,0.00
2014-6-29,86.7,76.4,66.9,68.5,65.5,61.0,87,71,43,29.82,29.72,14,4,0,0.32
2014-6-30,84.2,73.5,66.7,71.1,66.0,61.9,87,78,62,29.77,29.48,10,4,0,0.27
2014-7-1,80.4,70.6,63.5,66.0,61.0,58.8,87,73,49,29.66,29.54,11,4,0,0.22
2014-7-2,72.0,61.9,55.6,60.0,55.1,51.0,87,79,51,29.99,29.66,9,3,0,0.40
2014-7-3,78.6,64.9,48.7,53.2,47.9,41.8,87,58,28,30.15,29.98,9,3,0,0.00
2014-7-4,81.3,67.2,53.1,56.4,50.3,43.4,87,59,31,30.26,30.15,10,2,0,0.00
2014-7-5,81.0,70.3,59.5,57.4,53.4,47.5,70,56,43,30.19,29.95,11,4,0,0.00
2014-7-6,79.0,72.4,63.9,71.1,64.7,55.9,87,77,68,29.94,29.59,10,3,0,0.00
2014-7-7,87.6,75.4,64.4,69.7,61.8,56.4,88,66,35,29.71,29.59,8,3,0,0.57
2014-7-8,77.7,68.5,62.2,63.2,58.5,53.2,88,72,44,29.83,29.54,13,5,0,0.54
2014-7-9,74.5,65.5,56.1,61.5,54.2,50.1,88,68,49,30.06,29.83,10,3,0,0.00
2014-7-10,84.7,68.0,50.0,64.5,57.2,49.7,99,71,48,30.15,30.06,9,2,0,0.00
2014-7-11,81.5,72.3,62.6,65.0,60.0,56.1,82,66,49,30.15,30.03,9,4,0,0.00
2014-7-12,79.7,72.1,64.6,72.9,67.6,59.7,99,86,70,30.06,29.83,10,2,0,0.14
2014-7-13,81.5,70.2,59.4,68.6,60.0,51.0,99,74,38,29.88,29.83,10,4,0,0.01
2014-7-14,75.7,64.8,55.0,60.6,54.1,50.7,92,70,48,29.88,29.79,12,4,0,0.00
2014-7-15,68.5,59.6,52.7,57.9,53.5,49.5,99,81,59,29.99,29.85,11,5,0,0.40
2014-7-16,77.7,63.3,49.8,55.0,51.2,49.1,99,68,39,30.04,29.98,9,2,0,0.00
2014-7-17,81.1,66.9,50.9,57.8,54.0,50.6,99,66,40,30.10,30.02,7,2,0,0.00
2014-7-18,79.7,70.3,58.5,64.1,59.4,53.1,88,69,56,30.15,30.04,10,3,0,0.00
2014-7-19,81.7,72.9,61.5,65.4,61.8,57.0,92,70,53,30.07,29.96,7,2,0,0.00
2014-7-20,84.0,72.9,59.7,67.6,63.8,58.8,98,75,57,30.02,29.94,7,2,0,0.00
2014-7-21,89.8,77.1,64.2,72.2,68.3,63.3,97,76,56,30.03,29.98,9,3,0,0.00
2014-7-22,93.2,80.3,67.8,79.2,71.5,60.7,92,76,53,30.09,29.86,14,5,0,0.00
2014-7-23,77.7,68.5,59.0,60.7,55.1,49.8,96,65,43,30.21,30.09,10,4,0,0.00
2014-7-24,78.4,67.1,53.4,56.4,51.8,45.7,91,60,39,30.22,30.01,8,3,0,0.00
2014-7-25,75.7,67.8,60.8,62.1,56.4,46.9,80,67,56,30.05,29.88,10,4,0,0.00
2014-7-26,87.6,73.6,63.1,71.5,66.0,60.7,93,78,51,29.89,29.75,8,3,0,0.00
2014-7-27,78.4,69.5,59.5,67.9,61.2,53.0,93,76,53,30.00,29.71,13,4,0,0.12
2014-7-28,74.7,64.0,53.2,54.1,51.8,48.2,88,66,47,30.13,30.00,10,4,0,0.00
2014-7-29,79.7,65.8,56.7,59.0,55.7,53.7,93,72,42,30.05,29.95,11,4,0,0.35
2014-7-30,78.4,69.3,57.0,56.4,53.4,50.5,93,59,38,30.02,29.98,5,2,0,0.00
2014-7-31,82.4,68.5,57.9,66.4,60.4,55.1,93,77,49,30.02,29.95,8,2,0,1.05
2014-8-1,84.7,69.2,58.6,65.6,60.8,56.6,93,77,45,30.11,30.01,7,1,0,0.00
2014-8-2,82.6,70.1,55.8,64.2,58.6,53.8,93,70,40,30.16,30.08,6,2,0,0.00
2014-8-3,85.5,72.4,63.5,68.3,64.0,60.4,92,76,52,30.11,30.02,7,2,0,0.83
2014-8-4,73.2,68.6,64.4,66.1,63.5,59.5,93,84,74,30.11,30.04,7,3,0,0.73
2014-8-5,78.3,68.8,57.7,62.9,59.1,55.7,93,73,48,30.11,30.05,10,2,0,0.00
2014-8-6,82.6,70.5,56.5,63.8,58.9,54.0,93,69,39,30.10,30.04,8,2,0,0.00
2014-8-7,80.2,69.6,54.7,58.7,55.2,51.1,93,63,43,30.14,30.06,9,3,0,0.00
2014-8-8,82.2,71.1,57.6,63.0,58.0,53.3,93,67,39,30.15,30.07,9,3,0,0.00
2014-8-9,80.4,72.2,61.7,62.0,58.1,49.0,92,63,40,30.16,30.09,12,4,0,0.00
2014-8-10,81.3,71.8,61.2,64.2,60.3,56.8,93,69,48,30.12,29.99,7,2,0,0.00
2014-8-11,80.2,70.1,63.0,65.6,60.9,57.5,93,75,50,30.00,29.79,11,2,0,0.59
2014-8-12,78.1,63.4,56.3,60.7,54.4,48.8,93,75,43,30.01,29.86,12,6,0,0.30
2014-8-13,82.0,67.7,55.4,59.4,54.8,48.8,86,65,43,30.13,29.94,9,2,0,0.00
2014-8-14,75.0,63.3,51.3,53.8,48.4,44.0,89,61,36,30.19,30.02,7,2,0,0.00
2014-8-15,82.4,67.5,49.8,62.8,54.6,46.4,91,66,43,30.11,29.88,7,2,0,0.00
2014-8-16,86.5,70.9,61.9,70.0,64.2,59.6,93,81,54,30.00,29.77,12,4,0,0.21
2014-8-17,70.0,64.6,59.9,60.2,58.0,55.3,89,79,68,30.08,29.98,10,4,0,0.00
2014-8-18,83.7,66.9,58.1,71.1,61.8,56.1,93,85,63,30.01,29.74,18,2,0,1.17
2014-8-19,80.1,69.4,63.1,67.8,63.8,61.0,93,83,58,29.80,29.67,7,2,0,0.33
2014-8-20,78.8,69.7,61.0,66.2,63.4,59.0,93,81,63,29.98,29.81,9,3,0,0.00
2014-8-21,73.8,69.1,62.8,70.3,66.1,60.7,93,90,77,30.00,29.90,10,3,0,0.32
2014-8-22,86.4,76.0,69.6,75.8,71.3,67.5,93,86,66,30.01,29.87,9,4,0,0.00
2014-8-23,78.8,73.7,70.7,73.7,70.5,66.3,93,90,83,30.06,29.96,12,4,0,0.00
2014-8-24,79.5,73.6,70.2,71.7,68.8,66.2,92,85,76,30.06,29.96,11,6,0,0.00
2014-8-25,84.9,75.2,70.0,72.7,70.1,67.9,93,85,59,30.07,29.91,8,3,0,0.24
2014-8-26,79.0,70.7,61.9,69.1,60.2,56.0,93,71,50,30.16,30.01,9,3,0,0.00
2014-8-27,79.0,68.5,60.1,60.5,57.4,54.7,88,69,48,30.21,30.11,7,2,0,0.00
2014-8-28,73.0,65.4,55.4,61.1,57.4,53.4,93,76,63,30.20,30.06,9,3,0,0.00
2014-8-29,87.3,74.8,62.2,73.9,68.0,56.7,93,81,62,30.06,29.76,7,3,0,0.24
2014-8-30,78.8,72.7,65.5,70.7,67.6,63.4,93,84,71,29.93,29.75,8,3,0,0.16
2014-8-31,84.7,71.7,62.6,70.3,65.9,60.5,93,83,56,29.97,29.80,7,2,0,0.00
2014-9-1,78.1,70.5,63.3,69.8,66.4,61.2,93,87,69,29.86,29.67,7,3,0,0.25
2014-9-2,80.8,67.8,57.0,64.1,59.1,55.0,93,76,46,29.96,29.84,7,2,0,0.01
2014-9-3,83.7,71.9,59.4,64.6,60.0,57.0,92,69,43,30.02,29.87,9,3,0,0.00
2014-9-4,83.8,74.0,68.0,72.3,67.4,63.7,93,81,59,29.94,29.82,15,5,0,0.67
2014-9-5,77.7,70.0,61.0,73.9,63.0,54.1,93,79,62,30.14,29.82,11,5,0,0.50
2014-9-6,75.9,63.1,49.8,54.8,51.7,47.9,93,70,41,30.20,30.08,13,3,0,0.00
2014-9-7,88.5,65.9,51.1,59.1,53.3,49.1,93,68,32,30.23,30.07,5,1,0,0.36
2014-9-8,77.7,67.3,58.3,57.4,55.3,52.9,88,67,45,30.16,29.96,7,2,0,0.00
2014-9-9,82.9,69.4,56.8,66.0,60.9,54.7,93,76,52,30.01,29.82,8,2,0,0.00
2014-9-10,75.0,63.0,47.3,70.4,59.9,42.0,93,90,81,29.96,29.47,16,6,0,0.60
2014-9-11,53.6,48.1,44.6,44.3,41.4,38.7,89,78,68,30.32,29.98,12,4,0,0.00
2014-9-12,49.3,44.4,40.8,42.3,40.8,39.4,95,87,70,30.40,30.28,6,2,0,0.25
2014-9-13,59.7,47.8,39.7,41.4,39.7,35.9,95,76,46,30.34,30.24,8,3,0,0.01
2014-9-14,68.2,56.0,43.9,50.3,45.3,39.7,86,69,50,30.30,30.07,12,4,0,0.00
2014-9-15,62.4,53.7,47.7,53.1,50.1,45.6,95,88,63,30.17,30.10,8,2,0,0.09
2014-9-16,67.5,53.3,37.9,46.1,43.0,36.6,95,71,45,30.20,30.02,7,2,0,0.00
2014-9-17,73.9,57.3,42.6,53.0,48.3,41.3,95,75,48,30.06,29.89,12,2,0,0.00
2014-9-18,62.1,52.8,47.7,52.8,48.2,44.3,95,85,70,30.20,30.06,8,3,0,0.00
2014-9-19,74.3,62.4,46.2,57.0,52.3,44.8,95,72,46,30.16,29.81,14,4,0,0.02
2014-9-20,77.7,67.3,58.3,66.9,62.3,55.0,95,85,67,29.79,29.66,17,4,0,0.76
2014-9-21,61.2,55.2,43.9,56.2,49.1,40.4,95,81,55,30.18,29.68,12,5,0,0.02
2014-9-22,70.2,53.8,37.4,51.9,45.8,36.1,95,77,50,30.25,30.12,8,2,0,0.00
2014-9-23,77.4,60.5,45.7,56.9,51.6,44.4,95,75,45,30.28,30.15,4,1,0,0.00
2014-9-24,74.1,61.5,49.5,57.2,53.1,48.1,95,76,50,30.33,30.19,6,2,0,0.00
2014-9-25,76.8,64.4,53.6,57.0,54.0,51.1,95,72,42,30.27,30.14,9,2,0,0.00
2014-9-26,76.5,63.0,47.7,59.1,54.0,46.3,95,75,47,30.27,30.13,7,2,0,0.00
2014-9-27,79.2,65.6,51.8,63.3,56.7,50.4,95,75,51,30.25,30.08,8,2,0,0.00
2014-9-28,78.3,65.4,52.3,62.1,57.2,50.9,95,77,53,30.18,29.99,7,2,0,0.00
2014-9-29,74.1,58.0,46.8,63.7,53.6,41.7,94,86,65,30.09,29.93,8,2,0,0.01
2014-9-30,49.8,46.4,42.6,45.8,42.4,39.3,92,86,79,30.11,30.04,7,3,0,0.00
2014-10-1,65.3,56.4,47.8,56.0,51.6,46.0,95,85,67,30.05,29.86,11,4,0,0.09
2014-10-2,68.2,62.6,56.8,62.9,59.9,55.4,95,91,81,29.87,29.55,8,2,0,0.38
2014-10-3,63.5,51.5,40.3,61.4,47.1,34.9,95,85,74,29.71,29.51,16,6,0,0.64
2014-10-4,45.9,41.7,37.6,41.9,38.1,33.3,95,87,75,29.67,29.58,12,4,0,0.10
2014-10-5,50.4,44.1,35.2,38.6,34.4,31.9,89,70,50,29.65,29.56,10,3,0,0.00
2014-10-6,56.5,47.2,34.9,40.1,35.5,30.8,95,66,41,29.58,29.49,8,3,0,0.00
2014-10-7,63.7,54.3,45.1,44.0,40.8,36.8,84,61,44,29.80,29.51,9,4,0,0.00
2014-10-8,59.9,48.0,35.1,37.5,34.7,32.2,94,62,39,30.02,29.80,16,4,0,0.08
2014-10-9,57.0,43.7,31.5,38.8,33.9,28.9,92,70,45,30.16,30.02,9,2,0,0.00
2014-10-10,56.8,44.5,32.0,38.9,33.9,25.9,95,70,31,30.23,30.12,6,1,0,0.00
2014-10-11,58.5,44.6,32.2,39.6,35.9,30.9,95,74,45,30.25,30.11,8,1,0,0.00
2014-10-12,60.3,49.6,35.1,48.2,40.7,32.8,95,73,49,30.13,29.89,12,4,0,0.05
2014-10-13,61.2,55.0,49.8,56.0,52.6,48.1,95,92,78,29.88,29.57,8,2,0,2.55
2014-10-14,55.0,52.2,49.5,53.6,50.4,47.2,95,94,89,29.76,29.51,16,5,0,0.62
2014-10-15,53.8,49.8,48.0,51.5,48.2,46.6,95,94,92,29.89,29.73,9,4,0,0.07
2014-10-16,57.0,50.0,46.6,51.2,47.8,45.2,95,92,79,29.86,29.56,7,2,0,0.00
2014-10-17,55.6,50.5,46.6,50.2,46.8,42.0,95,87,74,29.89,29.50,18,5,0,0.00
2014-10-18,50.4,43.2,32.9,43.8,37.0,31.6,95,80,53,30.18,29.89,11,4,0,0.10
2014-10-19,57.2,45.2,30.2,45.3,39.0,28.9,95,80,60,30.17,29.78,10,3,0,0.00
2014-10-20,54.9,49.1,41.0,47.0,44.5,39.7,95,85,70,30.04,29.77,8,3,0,0.00
2014-10-21,50.9,45.4,41.4,41.6,37.9,32.4,89,76,57,30.29,30.04,9,3,0,0.00
2014-10-22,54.9,41.9,27.7,43.7,36.9,26.5,95,83,60,30.37,30.22,8,2,0,0.00
2014-10-23,53.8,44.4,31.8,48.5,41.4,30.5,95,90,67,30.22,30.02,6,1,0,0.23
2014-10-24,58.1,51.6,47.3,53.0,49.2,45.9,95,92,82,30.04,29.85,6,2,0,0.00
2014-10-25,64.6,56.1,45.1,54.7,41.3,29.6,95,63,30,29.96,29.83,14,5,0,0.05
2014-10-26,59.0,47.2,33.4,42.4,33.9,28.5,84,61,38,30.02,29.84,6,2,0,0.00
2014-10-27,73.0,59.1,50.4,60.5,50.8,39.9,91,74,65,29.83,29.48,9,3,0,0.00
2014-10-28,55.6,49.7,43.5,52.9,42.3,35.8,94,76,52,29.87,29.51,14,5,0,0.00
2014-10-29,47.5,41.9,31.5,36.1,34.1,30.2,95,74,62,30.12,29.87,12,5,0,0.00
2014-10-30,50.7,41.4,30.7,38.9,35.0,29.4,95,79,62,30.12,30.02,12,2,0,0.00
2014-10-31,41.5,35.8,31.3,33.5,24.5,19.7,93,64,48,30.45,30.04,17,7,0,0.20
2014-11-1,40.6,32.3,24.8,27.2,24.2,20.4,94,73,55,30.49,30.36,6,2,0,0.00
2014-11-2,52.9,39.4,26.8,32.3,28.3,25.6,95,68,38,30.36,30.08,11,3,0,0.00
2014-11-3,56.1,47.6,39.0,51.1,35.5,26.5,95,63,53,30.08,29.80,10,3,0,0.19
2014-11-4,56.5,48.3,41.2,55.1,41.1,29.8,95,77,55,29.97,29.71,15,5,0,0.17
2014-11-5,46.2,41.2,32.2,42.0,35.3,29.1,95,80,57,30.09,29.79,7,3,0,0.08
2014-11-6,43.2,37.5,34.2,41.9,32.7,27.0,95,83,67,30.22,29.77,17,6,0,0.26
2014-11-7,43.3,37.4,29.1,34.3,30.1,27.9,95,76,55,30.18,29.72,9,3,0,0.04
2014-11-8,42.6,37.4,30.9,37.4,29.9,23.9,94,75,53,29.91,29.66,17,6,0,0.11
2014-11-9,42.1,36.4,32.2,35.7,31.2,25.7,95,81,67,29.88,29.72,9,3,0,0.08
2014-11-10,45.9,39.4,35.1,42.8,35.4,25.6,95,86,67,29.88,29.54,12,5,0,0.00
2014-11-11,35.4,31.8,22.5,34.1,28.4,18.4,95,87,74,30.11,29.64,16,7,0,0.17
2014-11-12,29.1,22.8,18.5,20.1,17.7,15.8,92,81,66,30.26,30.11,11,5,0,0.00
2014-11-13,28.6,22.0,17.8,19.5,17.0,15.4,93,81,65,30.27,30.22,14,4,0,0.00
2014-11-14,26.8,21.2,14.9,19.1,14.6,11.4,95,76,57,30.33,30.26,8,3,0,0.00
2014-11-15,25.9,19.1,10.4,19.8,13.5,8.3,95,80,51,30.34,30.17,8,2,0,0.00
2014-11-16,29.5,22.2,12.4,23.3,18.6,6.3,95,86,73,30.17,29.84,7,3,0,0.00
2014-11-17,18.3,11.5,6.4,11.3,6.3,4.1,92,80,64,29.85,29.72,15,5,0,0.00
2014-11-18,19.4,13.3,8.4,8.5,5.9,3.5,81,72,61,30.01,29.83,12,5,0,0.00
2014-11-19,24.1,18.8,15.3,18.3,13.5,7.9,91,80,67,29.95,29.70,13,5,0,0.00
2014-11-20,19.8,15.3,5.9,15.4,6.0,-2.7,90,67,46,30.28,29.87,16,5,0,0.00
2014-11-21,30.9,18.7,2.1,18.7,6.5,-4.3,80,60,43,30.39,30.04,11,4,0,0.00
2014-11-22,45.5,36.9,31.1,42.7,34.2,19.6,97,90,62,30.04,29.73,11,4,0,0.00
2014-11-23,49.6,46.2,42.1,45.9,43.4,39.4,90,90,87,29.73,29.14,9,3,0,0.44
2014-11-24,42.3,35.0,24.4,39.6,32.4,21.9,90,90,90,29.72,29.06,10,3,0,0.48
2014-11-25,24.4,20.6,11.3,21.9,17.3,8.9,90,87,78,30.17,29.73,6,2,0,0.00
2014-11-26,28.2,18.9,8.4,21.3,15.6,6.1,90,87,72,30.21,30.13,4,1,0,0.00
2014-11-27,22.5,15.1,1.4,20.0,10.7,-1.3,90,83,66,30.39,30.21,9,3,0,0.00
2014-11-28,29.1,19.3,5.2,25.7,14.4,2.1,90,81,65,30.36,29.84,9,2,0,0.00
2014-11-29,41.7,35.0,27.3,36.5,31.5,24.8,90,87,75,29.83,29.50,6,3,0,0.35
2014-11-30,38.3,27.6,12.7,35.6,22.0,2.9,90,80,63,30.35,29.55,13,5,0,0.00
2014-12-1,12.2,7.5,2.1,2.7,-2.7,-5.9,76,63,50,30.68,30.36,11,4,0,0.00
2014-12-2,30.4,22.6,8.4,23.5,15.4,1.6,86,74,61,30.55,29.97,10,3,0,0.00
2014-12-3,29.1,22.9,13.8,20.6,12.6,5.8,83,65,49,30.35,29.96,14,5,0,0.00
2014-12-4,30.0,19.7,8.2,18.8,11.6,3.3,90,72,40,30.43,30.24,7,2,0,0.00
2014-12-5,39.6,30.0,16.9,31.0,25.8,14.5,90,85,70,30.31,30.16,6,1,0,0.00
2014-12-6,33.1,25.1,14.9,26.4,19.7,12.5,90,81,58,30.68,30.32,6,2,0,0.00
2014-12-7,38.1,27.2,14.0,26.6,21.3,11.6,90,79,58,30.65,30.21,10,2,0,0.00
2014-12-8,33.8,32.6,31.3,31.2,29.6,24.9,90,89,77,30.20,29.94,8,3,0,0.26
2014-12-9,34.7,29.7,24.4,30.7,25.4,20.8,90,84,70,30.43,30.12,8,4,0,0.12
2014-12-10,25.9,23.3,19.8,21.2,19.3,17.4,90,85,78,30.43,30.27,5,3,0,0.00
2014-12-11,28.0,21.0,16.7,21.7,17.9,14.3,90,88,76,30.27,30.18,10,4,0,0.00
2014-12-12,34.3,29.9,22.6,31.1,27.2,20.1,90,90,87,30.26,30.16,11,4,0,0.07
2014-12-13,40.5,37.2,32.5,37.8,34.6,29.9,90,90,90,30.17,30.01,7,2,0,0.03
2014-12-14,44.2,41.7,39.0,41.5,39.0,36.3,90,90,90,30.03,29.94,4,2,0,0.00
2014-12-15,45.7,42.3,39.4,42.9,39.6,36.7,90,90,90,29.93,29.68,5,2,0,0.05
2014-12-16,40.3,34.5,25.9,37.6,31.0,19.1,90,87,71,30.10,29.67,14,5,0,0.31
2014-12-17,27.0,23.3,19.9,22.3,17.0,14.2,88,77,66,30.27,30.10,16,6,0,0.00
2014-12-18,27.7,23.5,15.4,22.6,19.1,13.0,90,83,75,30.29,30.23,5,2,0,0.00
2014-12-19,30.7,21.1,12.0,21.3,16.5,9.6,90,83,64,30.31,30.25,3,1,0,0.00
2014-12-20,30.7,24.7,16.9,25.4,21.5,14.5,90,87,78,30.27,30.19,4,1,0,0.00
2014-12-21,36.9,33.0,28.0,33.1,29.9,25.5,90,88,85,30.19,29.95,7,3,0,0.00
2014-12-22,37.0,34.5,32.5,33.5,31.4,29.9,90,88,84,29.95,29.66,11,5,0,0.37
2014-12-23,42.4,38.7,36.0,39.7,36.0,33.4,90,90,90,29.75,29.57,9,4,0,0.30
2014-12-24,36.9,34.5,32.9,34.2,31.9,30.3,90,90,90,29.73,29.49,9,3,0,0.02
2014-12-25,37.8,34.2,29.1,33.0,30.4,26.5,90,86,78,29.94,29.58,10,3,0,0.00
2014-12-26,46.0,37.0,30.2,37.6,33.1,27.6,90,86,72,30.02,29.91,8,2,0,0.00
2014-12-27,42.1,33.1,23.2,39.4,29.6,17.8,90,87,76,30.10,29.81,12,4,0,0.03
2014-12-28,30.7,22.8,16.2,20.4,17.3,13.0,90,80,65,30.30,30.07,9,4,0,0.00
2014-12-29,19.2,14.9,7.3,14.6,6.7,1.1,87,70,57,30.56,30.30,10,4,0,0.00
2014-12-30,11.8,5.5,0.7,1.1,-4.3,-8.9,77,64,41,30.65,30.54,13,5,0,0.00
2014-12-31,17.6,8.2,-2.6,5.1,-1.9,-7.5,79,64,44,30.54,29.98,14,5,0,0.00
2015-1-1,27.5,19.4,13.3,17.7,12.1,4.7,84,73,63,30.09,29.83,11,4,0,0.00
2015-1-2,26.6,18.8,8.6,18.8,10.9,3.9,90,73,42,30.29,30.10,5,2,0,0.00